createdAt,value
2023-05-05T00:02:09.137Z,3.45
2023-05-05T00:05:10.848Z,3.53
2023-05-05T00:08:12.482Z,3.53
2023-05-05T00:11:14.180Z,4.10
2023-05-05T00:14:17.421Z,3.22
2023-05-05T00:17:19.150Z,3.63
2023-05-05T00:20:20.947Z,3.25
2023-05-05T00:23:22.661Z,3.50
2023-05-05T00:26:24.634Z,3.78
2023-05-05T00:29:27.929Z,3.72
2023-05-05T00:32:29.698Z,3.55
2023-05-05T00:35:31.470Z,3.92
2023-05-05T00:38:33.254Z,3.13
2023-05-05T00:41:34.918Z,3.85
2023-05-05T00:44:40.460Z,3.70
2023-05-05T00:47:44.025Z,3.80
2023-05-05T00:53:47.569Z,3.63
2023-05-05T00:56:50.053Z,3.90
2023-05-05T00:59:54.762Z,3.78
2023-05-05T01:02:56.590Z,3.53
2023-05-05T01:06:06.697Z,3.63
2023-05-05T01:09:16.349Z,3.63
2023-05-05T01:15:33.160Z,3.72
2023-05-05T01:18:42.035Z,4.00
2023-05-05T01:21:49.693Z,3.92
2023-05-05T01:25:12.405Z,4.18
2023-05-05T01:28:27.718Z,3.85
2023-05-05T01:31:48.119Z,4.45
2023-05-05T01:34:56.015Z,3.20
2023-05-05T01:38:03.361Z,3.70
2023-05-05T01:41:11.070Z,3.67
2023-05-05T01:44:16.102Z,4.32
2023-05-05T01:47:20.890Z,3.22
2023-05-05T01:50:24.550Z,4.15
2023-05-05T01:53:28.217Z,3.80
2023-05-05T01:59:34.187Z,4.00
2023-05-05T02:02:39.080Z,3.85
2023-05-05T02:05:43.055Z,4.88
2023-05-05T02:08:45.853Z,3.90
2023-05-05T02:11:48.468Z,3.42
2023-05-05T02:14:51.131Z,4.43
2023-05-05T02:17:55.529Z,4.07
2023-05-05T02:20:57.206Z,3.95
2023-05-05T02:23:59.135Z,4.20
2023-05-05T02:27:03.656Z,3.58
2023-05-05T02:30:09.673Z,3.70
2023-05-05T02:33:17.464Z,3.65
2023-05-05T02:36:21.734Z,3.95
2023-05-05T02:39:30.635Z,4.35
2023-05-05T02:42:35.344Z,4.55
2023-05-05T02:45:37.428Z,4.32
2023-05-05T02:48:41.300Z,4.28
2023-05-05T02:51:42.923Z,3.92
2023-05-05T02:54:44.990Z,3.83
2023-05-05T02:57:53.568Z,4.07
2023-05-05T03:01:07.909Z,4.07
2023-05-05T03:04:15.999Z,3.83
2023-05-05T03:07:24.762Z,4.18
2023-05-05T03:10:29.760Z,3.45
2023-05-05T03:13:34.606Z,4.22
2023-05-05T03:16:38.015Z,4.68
2023-05-05T03:19:42.418Z,4.35
2023-05-05T03:22:44.594Z,4.00
2023-05-05T03:25:47.394Z,4.43
2023-05-05T03:28:49.053Z,4.95
2023-05-05T03:31:50.841Z,4.03
2023-05-05T03:34:54.193Z,4.45
2023-05-05T03:37:56.052Z,4.32
2023-05-05T03:41:00.984Z,4.25
2023-05-05T03:44:03.069Z,4.53
2023-05-05T03:47:05.272Z,4.30
2023-05-05T03:50:09.345Z,4.13
2023-05-05T03:53:11.457Z,4.32
2023-05-05T03:56:14.199Z,4.25
2023-05-05T03:59:15.799Z,4.82
2023-05-05T04:02:18.828Z,4.93
2023-05-05T04:05:21.971Z,4.55
2023-05-05T04:08:23.618Z,4.85
2023-05-05T04:11:25.377Z,5.35
2023-05-05T04:14:27.038Z,5.68
2023-05-05T04:17:28.697Z,5.57
2023-05-05T04:20:34.520Z,5.07
2023-05-05T04:23:36.134Z,5.03
2023-05-05T04:26:39.518Z,5.03
2023-05-05T04:29:41.319Z,6.35
2023-05-05T04:32:42.964Z,5.55
2023-05-05T04:35:46.503Z,5.50
2023-05-05T04:38:48.144Z,4.45
2023-05-05T04:41:49.857Z,4.47
2023-05-05T04:44:51.616Z,4.50
2023-05-05T04:47:53.585Z,4.65
2023-05-05T04:50:56.664Z,4.40
2023-05-05T04:53:58.592Z,4.22
2023-05-05T04:57:00.180Z,4.00
2023-05-05T05:00:01.913Z,3.85
2023-05-05T05:03:05.584Z,4.05
2023-05-05T05:06:08.743Z,4.32
2023-05-05T05:09:10.461Z,4.72
2023-05-05T05:12:12.209Z,3.60
2023-05-05T05:15:13.989Z,3.85
2023-05-05T05:18:15.656Z,3.30
2023-05-05T05:21:21.338Z,3.30
2023-05-05T05:24:23.004Z,3.65
2023-05-05T05:27:24.715Z,3.42
2023-05-05T05:30:26.384Z,3.38
2023-05-05T05:33:28.033Z,3.50
2023-05-05T05:36:31.384Z,3.25
2023-05-05T05:39:33.334Z,3.13
2023-05-05T05:42:34.983Z,2.90
2023-05-05T05:45:36.635Z,3.53
2023-05-05T05:48:38.260Z,3.50
2023-05-05T05:51:41.178Z,3.13
2023-05-05T05:54:42.830Z,3.75
2023-05-05T05:57:44.780Z,3.90
2023-05-05T06:00:48.076Z,3.67
2023-05-05T06:03:49.912Z,3.78
2023-05-05T06:06:52.948Z,3.47
2023-05-05T06:09:55.037Z,3.38
2023-05-05T06:12:56.707Z,3.40
2023-05-05T06:15:58.880Z,3.00
2023-05-05T06:19:01.061Z,3.22
2023-05-05T06:22:04.081Z,3.60
2023-05-05T06:25:06.710Z,3.95
2023-05-05T06:28:08.345Z,3.47
2023-05-05T06:31:10.003Z,4.05
2023-05-05T06:34:11.912Z,4.95
2023-05-05T06:37:14.940Z,5.40
2023-05-05T06:40:16.741Z,3.75
2023-05-05T06:43:18.448Z,3.60
2023-05-05T06:46:20.404Z,3.90
2023-05-05T06:49:22.088Z,3.83
2023-05-05T06:52:25.383Z,3.60
2023-05-05T06:55:27.166Z,3.70
2023-05-05T06:58:29.289Z,3.70
2023-05-05T07:01:30.949Z,3.47
2023-05-05T07:04:33.091Z,3.42
2023-05-05T07:07:36.147Z,3.72
2023-05-05T07:10:37.845Z,3.58
2023-05-05T07:13:39.534Z,3.45
2023-05-05T07:16:41.445Z,3.47
2023-05-05T07:19:43.166Z,3.47
2023-05-05T07:22:46.119Z,3.13
2023-05-05T07:25:47.782Z,3.60
2023-05-05T07:28:49.468Z,3.33
2023-05-05T07:31:51.483Z,3.85
2023-05-05T07:34:53.797Z,3.58
2023-05-05T07:37:56.838Z,3.78
2023-05-05T07:40:58.513Z,3.17
2023-05-05T07:44:00.141Z,3.15
2023-05-05T07:47:01.823Z,3.55
2023-05-05T07:50:03.880Z,3.53
2023-05-05T07:53:14.465Z,3.38
2023-05-05T07:56:16.659Z,3.20
2023-05-05T07:59:18.297Z,3.42
2023-05-05T08:02:22.490Z,3.20
2023-05-05T08:05:24.677Z,2.97
2023-05-05T08:08:28.260Z,3.42
2023-05-05T08:11:29.933Z,3.47
2023-05-05T08:14:31.573Z,3.20
2023-05-05T08:17:43.796Z,3.47
2023-05-05T08:20:47.210Z,3.38
2023-05-05T08:23:53.193Z,3.22
2023-05-05T08:26:55.216Z,3.50
2023-05-05T08:29:57.323Z,3.35
2023-05-05T08:32:58.970Z,2.92
2023-05-05T08:36:00.941Z,3.47
2023-05-05T08:39:04.220Z,3.25
2023-05-05T08:42:06.717Z,4.32
2023-05-05T08:45:10.679Z,3.83
2023-05-05T08:48:16.754Z,3.40
2023-05-05T08:51:19.718Z,3.33
2023-05-05T08:54:27.139Z,4.45
2023-05-05T08:57:41.167Z,4.00
2023-05-05T09:00:45.348Z,3.55
2023-05-05T09:03:46.960Z,3.75
2023-05-05T09:06:48.867Z,3.72
2023-05-05T09:09:52.292Z,3.80
2023-05-05T09:12:53.987Z,3.97
2023-05-05T09:15:55.892Z,3.40
2023-05-05T09:19:04.363Z,3.42
2023-05-05T09:22:06.325Z,4.00
2023-05-05T09:25:10.967Z,3.60
2023-05-05T09:28:13.941Z,4.13
2023-05-05T09:31:15.747Z,3.67
2023-05-05T09:34:17.496Z,4.47
2023-05-05T09:37:27.170Z,4.00
2023-05-05T09:40:44.706Z,4.07
2023-05-05T09:43:51.074Z,3.92
2023-05-05T09:46:53.092Z,4.30
2023-05-05T09:49:58.047Z,4.63
2023-05-05T09:53:01.407Z,3.95
2023-05-05T09:56:05.279Z,3.78
2023-05-05T09:59:10.514Z,3.55
2023-05-05T10:02:13.479Z,3.40
2023-05-05T10:05:16.622Z,3.38
2023-05-05T10:11:21.981Z,3.75
2023-05-05T10:17:30.293Z,4.13
2023-05-05T10:20:33.193Z,4.18
2023-05-05T10:23:39.176Z,4.05
2023-05-05T10:26:44.142Z,3.60
2023-05-05T10:29:52.215Z,3.47
2023-05-05T10:33:09.141Z,3.65
2023-05-05T10:36:20.252Z,3.90
2023-05-05T10:39:23.700Z,4.70
2023-05-05T10:42:26.747Z,3.95
2023-05-05T10:45:28.818Z,3.13
2023-05-05T10:48:35.738Z,3.80
2023-05-05T10:51:46.903Z,4.15
2023-05-05T10:54:55.925Z,3.40
2023-05-05T10:57:58.933Z,3.55
2023-05-05T11:01:00.705Z,3.38
2023-05-05T11:04:22.760Z,3.15
2023-05-05T11:07:24.909Z,3.60
2023-05-05T11:10:26.782Z,3.22
2023-05-05T11:13:32.214Z,3.72
2023-05-05T11:16:44.935Z,3.60
2023-05-05T11:19:46.790Z,3.90
2023-05-05T11:23:22.677Z,3.78
2023-05-05T11:26:49.962Z,2.90
2023-05-05T11:33:26.905Z,3.15
2023-05-05T11:36:40.593Z,3.05
2023-05-05T11:39:58.510Z,3.30
2023-05-05T11:43:06.627Z,3.25
2023-05-05T11:46:13.136Z,3.15
2023-05-05T11:49:26.719Z,3.00
2023-05-05T11:52:28.318Z,3.15
2023-05-05T11:55:30.217Z,3.38
2023-05-05T11:58:31.875Z,3.35
2023-05-05T12:01:35.362Z,2.85
2023-05-05T12:04:39.687Z,2.90
2023-05-05T12:07:42.475Z,3.45
2023-05-05T12:10:44.281Z,2.78
2023-05-05T12:13:46.674Z,3.00
2023-05-05T12:16:56.425Z,3.10
2023-05-05T12:19:58.066Z,3.17
2023-05-05T12:23:03.487Z,3.20
2023-05-05T12:26:05.389Z,3.20
2023-05-05T12:29:07.435Z,3.28
2023-05-05T12:32:18.790Z,3.40
2023-05-05T12:35:20.700Z,3.55
2023-05-05T12:38:22.689Z,3.40
2023-05-05T12:41:24.421Z,3.28
2023-05-05T12:44:34.914Z,3.47
2023-05-05T12:47:38.029Z,3.60
2023-05-05T12:53:42.419Z,4.05
2023-05-05T12:56:45.883Z,3.40
2023-05-05T12:59:48.327Z,3.10
2023-05-05T13:02:51.720Z,3.03
2023-05-05T13:05:53.542Z,3.22
2023-05-05T13:08:55.505Z,3.17
2023-05-05T13:11:57.141Z,3.30
2023-05-05T13:14:58.700Z,2.95
2023-05-05T13:18:01.933Z,3.03
2023-05-05T13:21:03.874Z,3.15
2023-05-05T13:24:21.389Z,3.10
2023-05-05T13:27:27.970Z,4.68
2023-05-05T13:30:29.918Z,3.35
2023-05-05T13:33:34.976Z,3.72
2023-05-05T13:36:36.784Z,3.30
2023-05-05T13:39:38.655Z,3.08
2023-05-05T13:42:40.268Z,3.22
2023-05-05T13:45:42.171Z,3.13
2023-05-05T13:48:45.326Z,3.13
2023-05-05T13:51:47.375Z,3.20
2023-05-05T13:54:49.271Z,3.05
2023-05-05T13:57:51.145Z,3.00
2023-05-05T14:00:53.079Z,3.15
2023-05-05T14:03:57.635Z,3.10
2023-05-05T14:06:59.549Z,2.72
2023-05-05T14:10:01.210Z,3.72
2023-05-05T14:13:03.017Z,3.25
2023-05-05T14:16:05.280Z,6.15
2023-05-05T14:19:08.289Z,3.63
2023-05-05T14:25:11.589Z,3.15
2023-05-05T14:28:13.746Z,4.22
2023-05-05T14:31:15.470Z,3.22
2023-05-05T14:34:18.480Z,4.20
2023-05-05T14:40:21.793Z,2.92
2023-05-05T14:43:25.706Z,2.88
2023-05-05T14:46:30.032Z,3.83
2023-05-05T14:49:33.475Z,3.28
2023-05-05T14:52:35.711Z,3.58
2023-05-05T14:55:38.908Z,3.17
2023-05-05T14:58:40.557Z,2.90
2023-05-05T15:01:42.230Z,3.50
2023-05-05T15:04:45.420Z,3.53
2023-05-05T15:07:47.062Z,3.20
2023-05-05T15:10:49.077Z,3.42
2023-05-05T15:13:50.959Z,3.05
2023-05-05T15:16:52.816Z,3.20
2023-05-05T15:19:55.769Z,2.95
2023-05-05T15:29:06.302Z,3.20
2023-05-05T15:32:07.979Z,3.10
2023-05-05T15:35:11.288Z,3.03
2023-05-05T15:38:15.878Z,3.22
2023-05-05T15:41:17.504Z,3.10
2023-05-05T15:44:19.462Z,4.00
2023-05-05T15:47:21.370Z,3.40
2023-05-05T15:50:24.638Z,3.38
2023-05-05T15:53:26.416Z,3.15
2023-05-05T15:56:28.409Z,2.90
2023-05-05T15:59:30.210Z,3.15
2023-05-05T16:02:31.947Z,3.28
2023-05-05T16:05:35.017Z,3.25
2023-05-05T16:08:36.974Z,3.45
2023-05-05T16:11:38.991Z,2.53
2023-05-05T16:14:40.766Z,2.90
2023-05-05T16:17:42.504Z,3.20
2023-05-05T16:20:45.593Z,3.03
2023-05-05T16:26:48.827Z,3.25
2023-05-05T16:29:51.225Z,3.50
2023-05-05T16:32:53.145Z,3.60
2023-05-05T16:35:56.486Z,3.15
2023-05-05T16:38:58.439Z,3.17
2023-05-05T16:45:02.340Z,4.13
2023-05-05T16:48:06.808Z,3.80
2023-05-05T16:51:12.137Z,3.15
2023-05-05T16:54:14.122Z,4.22
2023-05-05T16:57:16.096Z,3.38
2023-05-05T17:00:18.071Z,3.38
2023-05-05T17:03:20.172Z,3.03
2023-05-05T17:06:23.246Z,3.40
2023-05-05T17:09:25.016Z,3.40
2023-05-05T17:12:27.033Z,3.47
2023-05-05T17:15:28.717Z,4.50
2023-05-05T17:18:30.369Z,5.38
2023-05-05T17:21:33.494Z,5.65
2023-05-05T17:30:38.301Z,3.72
2023-05-05T17:33:39.982Z,3.92
2023-05-05T17:36:43.308Z,4.78
2023-05-05T17:39:45.239Z,4.95
2023-05-05T17:42:46.918Z,5.43
2023-05-05T17:45:48.691Z,7.93
2023-05-05T17:48:50.975Z,7.18
2023-05-05T17:51:53.978Z,7.65
2023-05-05T17:54:55.690Z,7.65
2023-05-05T17:57:57.481Z,8.38
2023-05-05T18:00:59.617Z,15.02
2023-05-05T18:04:01.309Z,48.30
2023-05-05T18:07:04.855Z,60.67
2023-05-05T18:10:07.660Z,58.50
2023-05-05T18:13:09.622Z,43.55
2023-05-05T18:16:11.373Z,34.95
2023-05-05T18:19:12.978Z,21.25
2023-05-05T18:22:16.044Z,17.60
2023-05-05T18:25:17.881Z,16.48
2023-05-05T18:28:19.513Z,16.73
2023-05-05T18:31:21.173Z,15.77
2023-05-05T18:34:22.892Z,16.52
2023-05-05T18:37:26.101Z,18.80
2023-05-05T18:40:27.865Z,24.30
2023-05-05T18:43:30.610Z,25.05
2023-05-05T18:46:32.517Z,24.77
2023-05-05T18:49:34.297Z,26.00
2023-05-05T18:52:37.288Z,25.77
2023-05-05T18:55:39.029Z,24.42
2023-05-05T18:58:40.977Z,22.50
2023-05-05T19:01:44.626Z,20.60
2023-05-05T19:04:46.765Z,19.52
2023-05-05T19:07:50.175Z,14.20
2023-05-05T19:13:53.233Z,12.43
2023-05-05T19:16:55.055Z,13.70
2023-05-05T19:19:56.953Z,13.88
2023-05-05T19:22:59.986Z,13.82
2023-05-05T19:26:02.172Z,14.23
2023-05-05T19:29:03.906Z,13.15
2023-05-05T19:32:06.314Z,14.27
2023-05-05T19:35:08.865Z,13.38
2023-05-05T19:38:12.216Z,15.15
2023-05-05T19:41:13.903Z,14.77
2023-05-05T19:44:16.090Z,13.43
2023-05-05T19:47:17.780Z,14.98
2023-05-05T19:50:19.658Z,13.27
2023-05-05T19:53:22.745Z,11.18
2023-05-05T19:56:24.589Z,9.80
2023-05-05T19:59:26.632Z,9.10
2023-05-05T20:02:28.671Z,8.95
2023-05-05T20:05:30.537Z,7.63
2023-05-05T20:08:33.585Z,8.00
2023-05-05T20:11:35.336Z,7.18
2023-05-05T20:14:36.995Z,6.97
2023-05-05T20:17:38.981Z,7.32
2023-05-05T20:20:40.764Z,8.85
2023-05-05T20:23:44.280Z,8.40
2023-05-05T20:26:45.929Z,8.40
2023-05-05T20:29:47.564Z,9.60
2023-05-05T20:32:49.257Z,10.60
2023-05-05T20:35:52.509Z,11.77
2023-05-05T20:38:55.643Z,12.20
2023-05-05T20:41:57.467Z,12.25
2023-05-05T20:45:00.921Z,13.77
2023-05-05T20:48:03.940Z,14.60
2023-05-05T20:51:06.055Z,13.23
2023-05-05T20:54:09.474Z,13.60
2023-05-05T21:00:12.959Z,13.07
2023-05-05T21:03:14.999Z,11.27
2023-05-05T21:06:16.797Z,11.60
2023-05-05T21:09:19.798Z,9.77
2023-05-05T21:12:21.461Z,9.80
2023-05-05T21:15:23.342Z,9.85
2023-05-05T21:18:25.012Z,10.73
2023-05-05T21:21:26.721Z,11.02
2023-05-05T21:24:29.746Z,11.93
2023-05-05T21:27:31.362Z,11.20
2023-05-05T21:30:33.258Z,10.77
2023-05-05T21:33:34.906Z,12.52
2023-05-05T21:36:36.831Z,11.68
2023-05-05T21:39:39.848Z,10.63
2023-05-05T21:42:42.162Z,11.07
2023-05-05T21:45:43.949Z,11.25
2023-05-05T21:48:46.449Z,10.23
2023-05-05T21:51:48.125Z,8.95
2023-05-05T21:54:51.173Z,10.15
2023-05-05T21:57:52.826Z,8.63
2023-05-05T22:00:54.472Z,7.75
2023-05-05T22:03:56.495Z,7.10
2023-05-05T22:06:58.424Z,8.13
2023-05-05T22:10:01.762Z,8.05
2023-05-05T22:13:03.453Z,6.70
2023-05-05T22:16:06.194Z,7.60
2023-05-05T22:19:07.861Z,7.28
2023-05-05T22:22:09.479Z,7.80
2023-05-05T22:25:13.112Z,7.80
2023-05-05T22:28:14.820Z,6.90
2023-05-05T22:31:16.696Z,7.78
2023-05-05T22:34:18.416Z,7.55
2023-05-05T22:37:20.281Z,7.07
2023-05-05T22:40:23.430Z,6.72
2023-05-05T22:43:25.202Z,7.35
2023-05-05T22:46:26.903Z,7.00
2023-05-05T22:49:28.697Z,7.40
2023-05-05T22:52:30.369Z,6.68
2023-05-05T22:55:33.394Z,6.82
2023-05-05T22:58:35.096Z,8.40
2023-05-05T23:01:37.079Z,6.85
2023-05-05T23:04:38.843Z,6.38
2023-05-05T23:07:40.761Z,6.22
2023-05-05T23:10:43.816Z,6.75
2023-05-05T23:13:45.440Z,7.05
2023-05-05T23:16:47.170Z,6.72
2023-05-05T23:19:49.112Z,6.63
2023-05-05T23:22:51.140Z,7.13
2023-05-05T23:25:54.144Z,7.85
2023-05-05T23:28:56.214Z,7.28
2023-05-05T23:31:58.402Z,6.88
2023-05-05T23:35:00.302Z,8.15
2023-05-05T23:38:02.228Z,8.40
2023-05-05T23:41:05.591Z,8.23
2023-05-05T23:44:07.557Z,9.38
2023-05-05T23:47:09.478Z,9.18
2023-05-05T23:50:11.594Z,13.30
2023-05-05T23:53:13.626Z,13.75
2023-05-05T23:56:16.667Z,13.80
2023-05-05T23:59:18.333Z,13.10
